sensor_id;sensor_type;location;lat;lon;timestamp;P1;durP1;ratioP1;P2;durP2;ratioP2
20870;SDS011;10595;51.218;3.452;2023-07-28T00:00:11;10.30;;;5.50;;
20870;SDS011;10595;51.218;3.452;2023-07-28T00:02:38;10.67;;;5.60;;
20870;SDS011;10595;51.218;3.452;2023-07-28T00:05:04;11.20;;;5.80;;
20870;SDS011;10595;51.218;3.452;2023-07-28T00:07:30;8.03;;;5.20;;
20870;SDS011;10595;51.218;3.452;2023-07-28T00:09:59;11.30;;;6.07;;
20870;SDS011;10595;51.218;3.452;2023-07-28T00:12:25;12.13;;;5.90;;
20870;SDS011;10595;51.218;3.452;2023-07-28T00:14:51;11.33;;;5.70;;
20870;SDS011;10595;51.218;3.452;2023-07-28T00:17:17;10.53;;;5.80;;
20870;SDS011;10595;51.218;3.452;2023-07-28T00:19:43;10.77;;;6.10;;
20870;SDS011;10595;51.218;3.452;2023-07-28T00:22:09;12.73;;;5.90;;
20870;SDS011;10595;51.218;3.452;2023-07-28T00:24:35;13.47;;;5.50;;
20870;SDS011;10595;51.218;3.452;2023-07-28T00:27:01;13.50;;;6.07;;
20870;SDS011;10595;51.218;3.452;2023-07-28T00:29:27;10.13;;;5.30;;
20870;SDS011;10595;51.218;3.452;2023-07-28T00:31:53;11.70;;;5.77;;
20870;SDS011;10595;51.218;3.452;2023-07-28T00:34:19;11.67;;;6.13;;
20870;SDS011;10595;51.218;3.452;2023-07-28T00:36:45;11.43;;;5.63;;
20870;SDS011;10595;51.218;3.452;2023-07-28T00:39:11;12.97;;;5.47;;
20870;SDS011;10595;51.218;3.452;2023-07-28T00:41:37;9.03;;;5.37;;
20870;SDS011;10595;51.218;3.452;2023-07-28T00:44:03;10.40;;;5.70;;
20870;SDS011;10595;51.218;3.452;2023-07-28T00:46:29;11.83;;;7.23;;
20870;SDS011;10595;51.218;3.452;2023-07-28T00:48:55;10.90;;;6.10;;
20870;SDS011;10595;51.218;3.452;2023-07-28T00:51:21;10.13;;;6.53;;
20870;SDS011;10595;51.218;3.452;2023-07-28T00:53:47;13.07;;;6.13;;
20870;SDS011;10595;51.218;3.452;2023-07-28T00:56:13;13.13;;;7.57;;
20870;SDS011;10595;51.218;3.452;2023-07-28T00:58:40;10.83;;;5.97;;
20870;SDS011;10595;51.218;3.452;2023-07-28T01:01:06;13.47;;;5.90;;
20870;SDS011;10595;51.218;3.452;2023-07-28T01:03:32;12.30;;;6.77;;
20870;SDS011;10595;51.218;3.452;2023-07-28T01:08:28;15.83;;;6.67;;
20870;SDS011;10595;51.218;3.452;2023-07-28T01:10:56;12.97;;;6.33;;
20870;SDS011;10595;51.218;3.452;2023-07-28T01:13:22;13.80;;;6.53;;
20870;SDS011;10595;51.218;3.452;2023-07-28T01:15:48;14.17;;;6.60;;
20870;SDS011;10595;51.218;3.452;2023-07-28T01:18:14;14.23;;;6.90;;
20870;SDS011;10595;51.218;3.452;2023-07-28T01:20:40;12.43;;;7.27;;
20870;SDS011;10595;51.218;3.452;2023-07-28T01:23:20;15.27;;;7.37;;
20870;SDS011;10595;51.218;3.452;2023-07-28T01:25:50;13.47;;;7.07;;
20870;SDS011;10595;51.218;3.452;2023-07-28T01:28:20;14.77;;;7.60;;
20870;SDS011;10595;51.218;3.452;2023-07-28T01:30:46;13.50;;;6.70;;
20870;SDS011;10595;51.218;3.452;2023-07-28T01:33:13;11.40;;;6.67;;
20870;SDS011;10595;51.218;3.452;2023-07-28T01:35:39;12.13;;;6.83;;
20870;SDS011;10595;51.218;3.452;2023-07-28T01:38:05;12.70;;;6.80;;
20870;SDS011;10595;51.218;3.452;2023-07-28T01:40:31;14.57;;;6.60;;
20870;SDS011;10595;51.218;3.452;2023-07-28T01:42:57;10.60;;;7.20;;
20870;SDS011;10595;51.218;3.452;2023-07-28T01:45:23;13.47;;;7.50;;
20870;SDS011;10595;51.218;3.452;2023-07-28T01:47:49;16.50;;;7.13;;
20870;SDS011;10595;51.218;3.452;2023-07-28T01:50:15;18.23;;;8.33;;
20870;SDS011;10595;51.218;3.452;2023-07-28T01:52:41;15.93;;;7.50;;
20870;SDS011;10595;51.218;3.452;2023-07-28T01:55:07;14.30;;;8.87;;
20870;SDS011;10595;51.218;3.452;2023-07-28T01:57:34;17.67;;;8.37;;
20870;SDS011;10595;51.218;3.452;2023-07-28T02:00:00;11.93;;;8.40;;
20870;SDS011;10595;51.218;3.452;2023-07-28T02:02:28;16.53;;;9.33;;
20870;SDS011;10595;51.218;3.452;2023-07-28T02:04:54;17.07;;;9.77;;
20870;SDS011;10595;51.218;3.452;2023-07-28T02:07:20;16.20;;;9.13;;
20870;SDS011;10595;51.218;3.452;2023-07-28T02:09:46;20.33;;;10.73;;
20870;SDS011;10595;51.218;3.452;2023-07-28T02:12:12;19.37;;;11.10;;
20870;SDS011;10595;51.218;3.452;2023-07-28T02:14:38;21.07;;;11.87;;
20870;SDS011;10595;51.218;3.452;2023-07-28T02:17:04;19.10;;;12.00;;
20870;SDS011;10595;51.218;3.452;2023-07-28T02:19:30;21.10;;;12.33;;
20870;SDS011;10595;51.218;3.452;2023-07-28T02:21:56;20.00;;;11.80;;
20870;SDS011;10595;51.218;3.452;2023-07-28T02:24:22;19.53;;;13.20;;
20870;SDS011;10595;51.218;3.452;2023-07-28T02:26:48;21.60;;;11.87;;
20870;SDS011;10595;51.218;3.452;2023-07-28T02:29:14;18.80;;;11.10;;
20870;SDS011;10595;51.218;3.452;2023-07-28T02:31:40;20.07;;;11.97;;
20870;SDS011;10595;51.218;3.452;2023-07-28T02:34:06;19.97;;;11.07;;
20870;SDS011;10595;51.218;3.452;2023-07-28T02:36:32;18.43;;;11.20;;
20870;SDS011;10595;51.218;3.452;2023-07-28T02:38:58;20.27;;;11.80;;
20870;SDS011;10595;51.218;3.452;2023-07-28T02:41:24;22.00;;;12.00;;
20870;SDS011;10595;51.218;3.452;2023-07-28T02:43:50;18.23;;;10.33;;
20870;SDS011;10595;51.218;3.452;2023-07-28T02:46:16;22.87;;;10.80;;
20870;SDS011;10595;51.218;3.452;2023-07-28T02:48:42;17.90;;;10.33;;
20870;SDS011;10595;51.218;3.452;2023-07-28T02:51:08;18.17;;;9.97;;
20870;SDS011;10595;51.218;3.452;2023-07-28T02:53:34;16.67;;;10.07;;
20870;SDS011;10595;51.218;3.452;2023-07-28T02:56:00;16.27;;;9.23;;
20870;SDS011;10595;51.218;3.452;2023-07-28T02:58:26;16.83;;;9.70;;
20870;SDS011;10595;51.218;3.452;2023-07-28T03:00:52;18.10;;;10.03;;
20870;SDS011;10595;51.218;3.452;2023-07-28T03:03:18;17.33;;;10.53;;
20870;SDS011;10595;51.218;3.452;2023-07-28T03:05:44;13.90;;;9.30;;
20870;SDS011;10595;51.218;3.452;2023-07-28T03:08:10;18.33;;;9.60;;
20870;SDS011;10595;51.218;3.452;2023-07-28T03:10:37;17.13;;;9.13;;
20870;SDS011;10595;51.218;3.452;2023-07-28T03:13:03;17.30;;;9.47;;
20870;SDS011;10595;51.218;3.452;2023-07-28T03:15:29;16.20;;;9.60;;
20870;SDS011;10595;51.218;3.452;2023-07-28T03:17:55;19.90;;;10.53;;
20870;SDS011;10595;51.218;3.452;2023-07-28T03:20:21;19.40;;;10.40;;
20870;SDS011;10595;51.218;3.452;2023-07-28T03:22:47;17.17;;;9.83;;
20870;SDS011;10595;51.218;3.452;2023-07-28T03:25:13;19.07;;;10.47;;
20870;SDS011;10595;51.218;3.452;2023-07-28T03:27:39;21.77;;;10.17;;
20870;SDS011;10595;51.218;3.452;2023-07-28T03:30:05;19.50;;;10.10;;
20870;SDS011;10595;51.218;3.452;2023-07-28T03:32:34;18.67;;;10.00;;
20870;SDS011;10595;51.218;3.452;2023-07-28T03:35:00;17.00;;;9.33;;
20870;SDS011;10595;51.218;3.452;2023-07-28T03:37:26;16.87;;;8.93;;
20870;SDS011;10595;51.218;3.452;2023-07-28T03:39:52;17.53;;;9.87;;
20870;SDS011;10595;51.218;3.452;2023-07-28T03:42:18;20.33;;;10.10;;
20870;SDS011;10595;51.218;3.452;2023-07-28T03:44:44;21.73;;;13.00;;
20870;SDS011;10595;51.218;3.452;2023-07-28T03:47:10;19.57;;;11.00;;
20870;SDS011;10595;51.218;3.452;2023-07-28T03:49:36;17.70;;;11.20;;
20870;SDS011;10595;51.218;3.452;2023-07-28T03:52:02;17.53;;;11.57;;
20870;SDS011;10595;51.218;3.452;2023-07-28T03:54:28;19.30;;;11.33;;
20870;SDS011;10595;51.218;3.452;2023-07-28T03:56:54;19.83;;;11.47;;
20870;SDS011;10595;51.218;3.452;2023-07-28T03:59:20;22.40;;;12.17;;
20870;SDS011;10595;51.218;3.452;2023-07-28T04:01:46;22.03;;;12.40;;
20870;SDS011;10595;51.218;3.452;2023-07-28T04:04:13;18.53;;;11.90;;
20870;SDS011;10595;51.218;3.452;2023-07-28T04:06:41;20.33;;;12.27;;
20870;SDS011;10595;51.218;3.452;2023-07-28T04:09:08;22.07;;;12.57;;
20870;SDS011;10595;51.218;3.452;2023-07-28T04:11:34;18.93;;;11.53;;
20870;SDS011;10595;51.218;3.452;2023-07-28T04:14:00;16.17;;;11.53;;
20870;SDS011;10595;51.218;3.452;2023-07-28T04:16:26;19.93;;;12.27;;
20870;SDS011;10595;51.218;3.452;2023-07-28T04:18:52;14.53;;;10.40;;
20870;SDS011;10595;51.218;3.452;2023-07-28T04:21:18;19.70;;;10.67;;
20870;SDS011;10595;51.218;3.452;2023-07-28T04:23:44;18.67;;;11.17;;
20870;SDS011;10595;51.218;3.452;2023-07-28T04:26:10;16.90;;;10.10;;
20870;SDS011;10595;51.218;3.452;2023-07-28T04:28:36;13.03;;;9.50;;
20870;SDS011;10595;51.218;3.452;2023-07-28T04:31:02;16.80;;;9.93;;
20870;SDS011;10595;51.218;3.452;2023-07-28T04:33:28;14.00;;;9.53;;
20870;SDS011;10595;51.218;3.452;2023-07-28T04:35:54;16.80;;;9.10;;
20870;SDS011;10595;51.218;3.452;2023-07-28T04:38:20;15.33;;;9.27;;
20870;SDS011;10595;51.218;3.452;2023-07-28T04:40:46;12.80;;;9.00;;
20870;SDS011;10595;51.218;3.452;2023-07-28T04:43:12;13.63;;;8.73;;
20870;SDS011;10595;51.218;3.452;2023-07-28T04:45:38;13.73;;;8.77;;
20870;SDS011;10595;51.218;3.452;2023-07-28T04:48:04;12.23;;;8.00;;
20870;SDS011;10595;51.218;3.452;2023-07-28T04:50:30;12.53;;;8.30;;
20870;SDS011;10595;51.218;3.452;2023-07-28T04:52:58;15.77;;;7.67;;
20870;SDS011;10595;51.218;3.452;2023-07-28T04:55:24;11.90;;;7.80;;
20870;SDS011;10595;51.218;3.452;2023-07-28T04:57:52;14.83;;;7.90;;
20870;SDS011;10595;51.218;3.452;2023-07-28T05:00:18;14.70;;;7.70;;
20870;SDS011;10595;51.218;3.452;2023-07-28T05:02:44;12.60;;;7.83;;
20870;SDS011;10595;51.218;3.452;2023-07-28T05:05:10;11.00;;;7.07;;
20870;SDS011;10595;51.218;3.452;2023-07-28T05:07:36;11.67;;;6.80;;
20870;SDS011;10595;51.218;3.452;2023-07-28T05:10:02;13.77;;;7.90;;
20870;SDS011;10595;51.218;3.452;2023-07-28T05:12:28;14.17;;;6.60;;
20870;SDS011;10595;51.218;3.452;2023-07-28T05:14:54;9.43;;;6.30;;
20870;SDS011;10595;51.218;3.452;2023-07-28T05:17:20;9.37;;;6.33;;
20870;SDS011;10595;51.218;3.452;2023-07-28T05:19:46;11.73;;;6.23;;
20870;SDS011;10595;51.218;3.452;2023-07-28T05:22:12;11.53;;;6.27;;
20870;SDS011;10595;51.218;3.452;2023-07-28T05:24:38;10.57;;;5.90;;
20870;SDS011;10595;51.218;3.452;2023-07-28T05:27:04;7.53;;;5.67;;
20870;SDS011;10595;51.218;3.452;2023-07-28T05:29:30;13.60;;;6.07;;
20870;SDS011;10595;51.218;3.452;2023-07-28T05:31:58;11.93;;;5.90;;
20870;SDS011;10595;51.218;3.452;2023-07-28T05:34:25;10.43;;;5.50;;
20870;SDS011;10595;51.218;3.452;2023-07-28T05:36:51;12.67;;;6.13;;
20870;SDS011;10595;51.218;3.452;2023-07-28T05:39:17;9.40;;;5.40;;
20870;SDS011;10595;51.218;3.452;2023-07-28T05:41:43;11.03;;;6.63;;
20870;SDS011;10595;51.218;3.452;2023-07-28T05:44:09;9.57;;;5.60;;
20870;SDS011;10595;51.218;3.452;2023-07-28T05:46:35;9.17;;;5.90;;
20870;SDS011;10595;51.218;3.452;2023-07-28T05:49:01;12.47;;;6.43;;
20870;SDS011;10595;51.218;3.452;2023-07-28T05:51:27;10.63;;;5.70;;
20870;SDS011;10595;51.218;3.452;2023-07-28T05:53:53;9.40;;;5.80;;
20870;SDS011;10595;51.218;3.452;2023-07-28T05:56:20;9.57;;;6.03;;
20870;SDS011;10595;51.218;3.452;2023-07-28T05:58:46;11.07;;;5.87;;
20870;SDS011;10595;51.218;3.452;2023-07-28T06:01:12;9.40;;;5.67;;
20870;SDS011;10595;51.218;3.452;2023-07-28T06:03:38;9.20;;;5.27;;
20870;SDS011;10595;51.218;3.452;2023-07-28T06:06:04;11.33;;;5.57;;
20870;SDS011;10595;51.218;3.452;2023-07-28T06:08:30;11.00;;;5.47;;
20870;SDS011;10595;51.218;3.452;2023-07-28T06:10:56;12.23;;;6.00;;
20870;SDS011;10595;51.218;3.452;2023-07-28T06:13:22;8.97;;;5.23;;
20870;SDS011;10595;51.218;3.452;2023-07-28T06:15:48;10.17;;;5.23;;
20870;SDS011;10595;51.218;3.452;2023-07-28T06:18:14;12.93;;;5.67;;
20870;SDS011;10595;51.218;3.452;2023-07-28T06:20:44;10.13;;;5.70;;
20870;SDS011;10595;51.218;3.452;2023-07-28T06:23:10;9.37;;;5.60;;
20870;SDS011;10595;51.218;3.452;2023-07-28T06:25:36;10.80;;;5.53;;
20870;SDS011;10595;51.218;3.452;2023-07-28T06:28:08;10.20;;;5.53;;
20870;SDS011;10595;51.218;3.452;2023-07-28T06:30:34;10.73;;;5.80;;
20870;SDS011;10595;51.218;3.452;2023-07-28T06:33:00;12.37;;;5.97;;
20870;SDS011;10595;51.218;3.452;2023-07-28T06:35:28;9.43;;;5.60;;
20870;SDS011;10595;51.218;3.452;2023-07-28T06:37:54;15.07;;;5.60;;
20870;SDS011;10595;51.218;3.452;2023-07-28T06:40:20;8.90;;;4.93;;
20870;SDS011;10595;51.218;3.452;2023-07-28T06:42:46;9.97;;;6.37;;
20870;SDS011;10595;51.218;3.452;2023-07-28T06:45:12;12.80;;;6.40;;
20870;SDS011;10595;51.218;3.452;2023-07-28T06:47:39;12.93;;;6.00;;
20870;SDS011;10595;51.218;3.452;2023-07-28T06:50:05;11.10;;;5.77;;
20870;SDS011;10595;51.218;3.452;2023-07-28T06:52:31;10.17;;;5.53;;
20870;SDS011;10595;51.218;3.452;2023-07-28T06:54:57;9.10;;;5.03;;
20870;SDS011;10595;51.218;3.452;2023-07-28T06:57:23;12.50;;;6.37;;
20870;SDS011;10595;51.218;3.452;2023-07-28T06:59:49;11.03;;;5.30;;
20870;SDS011;10595;51.218;3.452;2023-07-28T07:02:15;12.03;;;5.10;;
20870;SDS011;10595;51.218;3.452;2023-07-28T07:04:42;12.57;;;5.37;;
20870;SDS011;10595;51.218;3.452;2023-07-28T07:07:08;9.30;;;5.03;;
20870;SDS011;10595;51.218;3.452;2023-07-28T07:09:34;9.57;;;5.33;;
20870;SDS011;10595;51.218;3.452;2023-07-28T07:12:01;10.23;;;5.10;;
20870;SDS011;10595;51.218;3.452;2023-07-28T07:14:27;10.33;;;5.33;;
20870;SDS011;10595;51.218;3.452;2023-07-28T07:16:53;10.00;;;4.87;;
20870;SDS011;10595;51.218;3.452;2023-07-28T07:19:19;8.07;;;4.97;;
20870;SDS011;10595;51.218;3.452;2023-07-28T07:21:45;10.17;;;5.60;;
20870;SDS011;10595;51.218;3.452;2023-07-28T07:24:12;10.10;;;5.30;;
20870;SDS011;10595;51.218;3.452;2023-07-28T07:26:42;7.27;;;4.77;;
20870;SDS011;10595;51.218;3.452;2023-07-28T07:29:08;10.43;;;5.70;;
20870;SDS011;10595;51.218;3.452;2023-07-28T07:31:34;8.50;;;5.13;;
20870;SDS011;10595;51.218;3.452;2023-07-28T07:34:00;12.43;;;6.23;;
20870;SDS011;10595;51.218;3.452;2023-07-28T07:36:29;19.83;;;6.90;;
20870;SDS011;10595;51.218;3.452;2023-07-28T07:38:55;13.10;;;5.90;;
20870;SDS011;10595;51.218;3.452;2023-07-28T07:41:21;12.40;;;6.40;;
20870;SDS011;10595;51.218;3.452;2023-07-28T07:43:47;9.77;;;5.80;;
20870;SDS011;10595;51.218;3.452;2023-07-28T07:46:14;11.20;;;6.93;;
20870;SDS011;10595;51.218;3.452;2023-07-28T07:48:40;9.63;;;6.23;;
20870;SDS011;10595;51.218;3.452;2023-07-28T07:51:07;9.10;;;6.07;;
20870;SDS011;10595;51.218;3.452;2023-07-28T07:53:33;11.50;;;6.40;;
20870;SDS011;10595;51.218;3.452;2023-07-28T07:56:01;9.00;;;5.70;;
20870;SDS011;10595;51.218;3.452;2023-07-28T07:58:27;9.30;;;5.80;;
20870;SDS011;10595;51.218;3.452;2023-07-28T08:00:54;11.00;;;6.20;;
20870;SDS011;10595;51.218;3.452;2023-07-28T08:03:20;11.57;;;6.37;;
20870;SDS011;10595;51.218;3.452;2023-07-28T08:05:46;10.73;;;6.27;;
20870;SDS011;10595;51.218;3.452;2023-07-28T08:08:12;8.60;;;6.13;;
20870;SDS011;10595;51.218;3.452;2023-07-28T08:10:42;9.33;;;6.13;;
20870;SDS011;10595;51.218;3.452;2023-07-28T08:13:08;8.03;;;5.90;;
20870;SDS011;10595;51.218;3.452;2023-07-28T08:15:34;12.07;;;5.87;;
20870;SDS011;10595;51.218;3.452;2023-07-28T08:18:00;9.43;;;5.83;;
20870;SDS011;10595;51.218;3.452;2023-07-28T08:20:26;12.17;;;6.47;;
20870;SDS011;10595;51.218;3.452;2023-07-28T08:22:52;9.07;;;5.57;;
20870;SDS011;10595;51.218;3.452;2023-07-28T08:25:18;9.23;;;5.13;;
20870;SDS011;10595;51.218;3.452;2023-07-28T08:27:44;9.87;;;5.43;;
20870;SDS011;10595;51.218;3.452;2023-07-28T08:30:10;7.73;;;4.50;;
20870;SDS011;10595;51.218;3.452;2023-07-28T08:32:37;8.07;;;4.37;;
20870;SDS011;10595;51.218;3.452;2023-07-28T08:35:03;6.27;;;4.50;;
20870;SDS011;10595;51.218;3.452;2023-07-28T08:37:29;9.40;;;4.93;;
20870;SDS011;10595;51.218;3.452;2023-07-28T08:39:55;7.17;;;4.67;;
20870;SDS011;10595;51.218;3.452;2023-07-28T08:42:21;8.30;;;4.70;;
20870;SDS011;10595;51.218;3.452;2023-07-28T08:44:47;11.13;;;5.07;;
20870;SDS011;10595;51.218;3.452;2023-07-28T08:47:17;9.20;;;5.17;;
20870;SDS011;10595;51.218;3.452;2023-07-28T08:49:43;7.90;;;5.30;;
20870;SDS011;10595;51.218;3.452;2023-07-28T08:52:09;8.60;;;4.80;;
20870;SDS011;10595;51.218;3.452;2023-07-28T08:54:35;6.30;;;4.67;;
20870;SDS011;10595;51.218;3.452;2023-07-28T08:57:01;7.70;;;5.17;;
20870;SDS011;10595;51.218;3.452;2023-07-28T08:59:28;5.53;;;4.53;;
20870;SDS011;10595;51.218;3.452;2023-07-28T09:01:55;6.57;;;4.67;;
20870;SDS011;10595;51.218;3.452;2023-07-28T09:04:23;8.97;;;5.10;;
20870;SDS011;10595;51.218;3.452;2023-07-28T09:06:49;6.67;;;4.50;;
20870;SDS011;10595;51.218;3.452;2023-07-28T09:09:16;10.13;;;6.57;;
20870;SDS011;10595;51.218;3.452;2023-07-28T09:14:14;5.37;;;3.90;;
20870;SDS011;10595;51.218;3.452;2023-07-28T09:16:44;5.43;;;3.90;;
20870;SDS011;10595;51.218;3.452;2023-07-28T09:19:10;5.10;;;3.60;;
20870;SDS011;10595;51.218;3.452;2023-07-28T09:21:37;6.43;;;3.60;;
20870;SDS011;10595;51.218;3.452;2023-07-28T09:24:04;6.93;;;3.70;;
20870;SDS011;10595;51.218;3.452;2023-07-28T09:26:45;5.73;;;3.50;;
20870;SDS011;10595;51.218;3.452;2023-07-28T09:31:37;4.87;;;3.70;;
20870;SDS011;10595;51.218;3.452;2023-07-28T09:34:06;8.30;;;4.87;;
20870;SDS011;10595;51.218;3.452;2023-07-28T09:36:33;4.30;;;3.37;;
20870;SDS011;10595;51.218;3.452;2023-07-28T09:38:59;5.97;;;3.97;;
20870;SDS011;10595;51.218;3.452;2023-07-28T09:41:26;4.57;;;3.67;;
20870;SDS011;10595;51.218;3.452;2023-07-28T09:43:52;5.07;;;3.43;;
20870;SDS011;10595;51.218;3.452;2023-07-28T09:46:18;7.77;;;4.27;;
20870;SDS011;10595;51.218;3.452;2023-07-28T09:48:45;6.53;;;3.50;;
20870;SDS011;10595;51.218;3.452;2023-07-28T09:51:17;6.53;;;4.30;;
20870;SDS011;10595;51.218;3.452;2023-07-28T09:53:52;4.67;;;3.90;;
20870;SDS011;10595;51.218;3.452;2023-07-28T09:56:19;6.20;;;3.93;;
20870;SDS011;10595;51.218;3.452;2023-07-28T09:58:49;6.43;;;4.20;;
20870;SDS011;10595;51.218;3.452;2023-07-28T10:01:15;5.93;;;3.67;;
20870;SDS011;10595;51.218;3.452;2023-07-28T10:03:41;6.13;;;3.50;;
20870;SDS011;10595;51.218;3.452;2023-07-28T10:06:08;4.40;;;3.80;;
20870;SDS011;10595;51.218;3.452;2023-07-28T10:08:34;5.33;;;3.77;;
20870;SDS011;10595;51.218;3.452;2023-07-28T10:11:01;5.57;;;3.80;;
20870;SDS011;10595;51.218;3.452;2023-07-28T10:13:30;4.30;;;3.70;;
20870;SDS011;10595;51.218;3.452;2023-07-28T10:16:05;6.13;;;3.67;;
20870;SDS011;10595;51.218;3.452;2023-07-28T10:18:31;5.67;;;3.93;;
20870;SDS011;10595;51.218;3.452;2023-07-28T10:21:05;4.87;;;3.70;;
20870;SDS011;10595;51.218;3.452;2023-07-28T10:23:33;6.87;;;3.30;;
20870;SDS011;10595;51.218;3.452;2023-07-28T10:26:02;5.33;;;4.47;;
20870;SDS011;10595;51.218;3.452;2023-07-28T10:28:34;6.20;;;3.60;;
20870;SDS011;10595;51.218;3.452;2023-07-28T10:31:03;3.17;;;2.60;;
20870;SDS011;10595;51.218;3.452;2023-07-28T10:33:37;4.20;;;2.20;;
20870;SDS011;10595;51.218;3.452;2023-07-28T10:39:20;3.20;;;2.27;;
20870;SDS011;10595;51.218;3.452;2023-07-28T10:42:03;3.97;;;2.30;;
20870;SDS011;10595;51.218;3.452;2023-07-28T10:44:28;3.63;;;2.20;;
20870;SDS011;10595;51.218;3.452;2023-07-28T10:46:54;3.83;;;1.93;;
20870;SDS011;10595;51.218;3.452;2023-07-28T10:49:20;2.77;;;1.67;;
20870;SDS011;10595;51.218;3.452;2023-07-28T10:51:46;2.63;;;2.17;;
20870;SDS011;10595;51.218;3.452;2023-07-28T10:54:12;3.77;;;1.63;;
20870;SDS011;10595;51.218;3.452;2023-07-28T10:56:41;5.57;;;2.00;;
20870;SDS011;10595;51.218;3.452;2023-07-28T10:59:08;3.60;;;1.80;;
20870;SDS011;10595;51.218;3.452;2023-07-28T11:01:39;3.63;;;1.90;;
20870;SDS011;10595;51.218;3.452;2023-07-28T11:04:09;3.23;;;1.70;;
20870;SDS011;10595;51.218;3.452;2023-07-28T11:06:35;2.07;;;1.70;;
20870;SDS011;10595;51.218;3.452;2023-07-28T11:09:01;3.40;;;1.70;;
20870;SDS011;10595;51.218;3.452;2023-07-28T11:11:30;2.97;;;1.37;;
20870;SDS011;10595;51.218;3.452;2023-07-28T11:13:56;2.10;;;1.10;;
20870;SDS011;10595;51.218;3.452;2023-07-28T11:16:23;1.47;;;1.17;;
20870;SDS011;10595;51.218;3.452;2023-07-28T11:18:49;1.47;;;1.07;;
20870;SDS011;10595;51.218;3.452;2023-07-28T11:21:17;0.87;;;0.83;;
20870;SDS011;10595;51.218;3.452;2023-07-28T11:23:44;2.07;;;1.20;;
20870;SDS011;10595;51.218;3.452;2023-07-28T11:26:10;2.50;;;1.53;;
20870;SDS011;10595;51.218;3.452;2023-07-28T11:28:37;2.43;;;1.43;;
20870;SDS011;10595;51.218;3.452;2023-07-28T11:31:04;1.43;;;1.33;;
20870;SDS011;10595;51.218;3.452;2023-07-28T11:33:30;2.97;;;1.70;;
20870;SDS011;10595;51.218;3.452;2023-07-28T11:35:56;2.23;;;1.73;;
20870;SDS011;10595;51.218;3.452;2023-07-28T11:38:22;2.77;;;1.70;;
20870;SDS011;10595;51.218;3.452;2023-07-28T11:40:49;2.30;;;1.60;;
20870;SDS011;10595;51.218;3.452;2023-07-28T11:43:15;2.40;;;1.50;;
20870;SDS011;10595;51.218;3.452;2023-07-28T11:45:41;1.87;;;1.73;;
20870;SDS011;10595;51.218;3.452;2023-07-28T11:48:07;4.93;;;1.77;;
20870;SDS011;10595;51.218;3.452;2023-07-28T11:50:40;2.90;;;1.70;;
20870;SDS011;10595;51.218;3.452;2023-07-28T11:53:07;2.93;;;1.47;;
20870;SDS011;10595;51.218;3.452;2023-07-28T11:55:34;2.80;;;1.60;;
20870;SDS011;10595;51.218;3.452;2023-07-28T11:58:00;1.90;;;1.33;;
20870;SDS011;10595;51.218;3.452;2023-07-28T12:00:32;1.90;;;1.40;;
20870;SDS011;10595;51.218;3.452;2023-07-28T12:03:02;2.60;;;1.60;;
20870;SDS011;10595;51.218;3.452;2023-07-28T12:05:28;2.90;;;1.80;;
20870;SDS011;10595;51.218;3.452;2023-07-28T12:07:55;3.07;;;1.50;;
20870;SDS011;10595;51.218;3.452;2023-07-28T12:10:21;1.73;;;1.40;;
20870;SDS011;10595;51.218;3.452;2023-07-28T12:12:47;3.50;;;1.80;;
20870;SDS011;10595;51.218;3.452;2023-07-28T12:15:24;2.20;;;1.37;;
20870;SDS011;10595;51.218;3.452;2023-07-28T12:18:12;2.13;;;1.60;;
20870;SDS011;10595;51.218;3.452;2023-07-28T12:20:39;3.80;;;1.70;;
20870;SDS011;10595;51.218;3.452;2023-07-28T12:23:07;3.27;;;1.73;;
20870;SDS011;10595;51.218;3.452;2023-07-28T12:25:33;4.67;;;1.70;;
20870;SDS011;10595;51.218;3.452;2023-07-28T12:28:00;3.37;;;1.77;;
20870;SDS011;10595;51.218;3.452;2023-07-28T12:30:26;4.07;;;2.00;;
20870;SDS011;10595;51.218;3.452;2023-07-28T12:32:52;2.77;;;1.90;;
20870;SDS011;10595;51.218;3.452;2023-07-28T12:35:18;1.40;;;1.20;;
20870;SDS011;10595;51.218;3.452;2023-07-28T12:37:46;1.67;;;1.20;;
20870;SDS011;10595;51.218;3.452;2023-07-28T12:40:12;2.73;;;1.40;;
20870;SDS011;10595;51.218;3.452;2023-07-28T12:42:38;2.33;;;1.40;;
20870;SDS011;10595;51.218;3.452;2023-07-28T12:45:05;2.30;;;1.40;;
20870;SDS011;10595;51.218;3.452;2023-07-28T12:47:31;2.57;;;1.50;;
20870;SDS011;10595;51.218;3.452;2023-07-28T12:49:57;1.30;;;1.10;;
20870;SDS011;10595;51.218;3.452;2023-07-28T12:52:23;1.83;;;1.47;;
20870;SDS011;10595;51.218;3.452;2023-07-28T12:54:49;2.97;;;1.47;;
20870;SDS011;10595;51.218;3.452;2023-07-28T12:57:15;2.13;;;1.10;;
20870;SDS011;10595;51.218;3.452;2023-07-28T12:59:41;3.73;;;1.40;;
20870;SDS011;10595;51.218;3.452;2023-07-28T13:02:07;2.40;;;1.40;;
20870;SDS011;10595;51.218;3.452;2023-07-28T13:04:33;1.93;;;1.60;;
20870;SDS011;10595;51.218;3.452;2023-07-28T13:06:59;3.40;;;1.60;;
20870;SDS011;10595;51.218;3.452;2023-07-28T13:09:25;5.00;;;1.40;;
20870;SDS011;10595;51.218;3.452;2023-07-28T13:11:51;2.27;;;1.53;;
20870;SDS011;10595;51.218;3.452;2023-07-28T13:14:17;4.67;;;1.80;;
20870;SDS011;10595;51.218;3.452;2023-07-28T13:16:43;1.23;;;0.90;;
20870;SDS011;10595;51.218;3.452;2023-07-28T13:19:09;1.27;;;0.90;;
20870;SDS011;10595;51.218;3.452;2023-07-28T13:21:35;4.63;;;1.73;;
20870;SDS011;10595;51.218;3.452;2023-07-28T13:24:01;1.83;;;1.00;;
20870;SDS011;10595;51.218;3.452;2023-07-28T13:26:28;1.80;;;1.10;;
20870;SDS011;10595;51.218;3.452;2023-07-28T13:28:54;1.20;;;1.10;;
20870;SDS011;10595;51.218;3.452;2023-07-28T13:31:22;1.80;;;1.20;;
20870;SDS011;10595;51.218;3.452;2023-07-28T13:33:48;2.27;;;1.00;;
20870;SDS011;10595;51.218;3.452;2023-07-28T13:36:14;3.27;;;1.13;;
20870;SDS011;10595;51.218;3.452;2023-07-28T13:38:40;2.40;;;1.27;;
20870;SDS011;10595;51.218;3.452;2023-07-28T13:41:06;1.37;;;0.90;;
20870;SDS011;10595;51.218;3.452;2023-07-28T13:43:32;1.33;;;0.90;;
20870;SDS011;10595;51.218;3.452;2023-07-28T13:46:05;1.77;;;1.10;;
20870;SDS011;10595;51.218;3.452;2023-07-28T13:48:31;1.53;;;1.00;;
20870;SDS011;10595;51.218;3.452;2023-07-28T13:50:57;1.93;;;1.13;;
20870;SDS011;10595;51.218;3.452;2023-07-28T13:53:23;1.80;;;0.90;;
20870;SDS011;10595;51.218;3.452;2023-07-28T13:55:50;0.87;;;0.77;;
20870;SDS011;10595;51.218;3.452;2023-07-28T13:58:16;1.63;;;1.10;;
20870;SDS011;10595;51.218;3.452;2023-07-28T14:00:42;1.70;;;1.13;;
20870;SDS011;10595;51.218;3.452;2023-07-28T14:03:08;3.40;;;1.20;;
20870;SDS011;10595;51.218;3.452;2023-07-28T14:05:34;1.63;;;1.10;;
20870;SDS011;10595;51.218;3.452;2023-07-28T14:08:00;1.52;;;0.90;;
20870;SDS011;10595;51.218;3.452;2023-07-28T14:10:26;1.23;;;0.90;;
20870;SDS011;10595;51.218;3.452;2023-07-28T14:12:53;1.37;;;1.10;;
20870;SDS011;10595;51.218;3.452;2023-07-28T14:15:19;1.33;;;1.08;;
20870;SDS011;10595;51.218;3.452;2023-07-28T14:17:45;1.48;;;1.00;;
20870;SDS011;10595;51.218;3.452;2023-07-28T14:20:11;1.63;;;1.00;;
20870;SDS011;10595;51.218;3.452;2023-07-28T14:22:37;1.15;;;0.85;;
20870;SDS011;10595;51.218;3.452;2023-07-28T14:25:03;2.28;;;1.00;;
20870;SDS011;10595;51.218;3.452;2023-07-28T14:27:29;3.22;;;1.73;;
20870;SDS011;10595;51.218;3.452;2023-07-28T14:29:55;1.70;;;1.20;;
20870;SDS011;10595;51.218;3.452;2023-07-28T14:32:21;1.98;;;1.00;;
20870;SDS011;10595;51.218;3.452;2023-07-28T14:34:47;1.08;;;0.90;;
20870;SDS011;10595;51.218;3.452;2023-07-28T14:37:13;1.95;;;0.93;;
20870;SDS011;10595;51.218;3.452;2023-07-28T14:39:39;2.22;;;1.10;;
20870;SDS011;10595;51.218;3.452;2023-07-28T14:42:05;2.25;;;1.00;;
20870;SDS011;10595;51.218;3.452;2023-07-28T14:44:31;1.98;;;0.80;;
20870;SDS011;10595;51.218;3.452;2023-07-28T14:46:57;1.58;;;0.80;;